createdAt,value
2022-09-27T00:00:59.549Z,13.45
2022-09-27T00:03:26.719Z,9.30
2022-09-27T00:06:18.853Z,11.50
2022-09-27T00:08:45.563Z,9.57
2022-09-27T00:11:20.099Z,9.23
2022-09-27T00:13:47.001Z,11.38
2022-09-27T00:16:13.849Z,9.15
2022-09-27T00:18:40.575Z,9.68
2022-09-27T00:21:12.964Z,9.65
2022-09-27T00:23:40.834Z,8.80
2022-09-27T00:26:10.610Z,9.43
2022-09-27T00:28:37.377Z,12.85
2022-09-27T00:31:04.900Z,9.77
2022-09-27T00:33:31.684Z,8.93
2022-09-27T00:36:07.552Z,8.73
2022-09-27T00:38:34.215Z,7.88
2022-09-27T00:41:01.158Z,9.95
2022-09-27T00:43:51.116Z,8.85
2022-09-27T00:46:31.529Z,11.10
2022-09-27T00:49:21.323Z,11.02
2022-09-27T00:51:53.466Z,9.95
2022-09-27T00:54:21.217Z,10.43
2022-09-27T00:56:49.744Z,9.60
2022-09-27T00:59:20.043Z,11.00
2022-09-27T01:01:47.182Z,12.30
2022-09-27T01:04:18.261Z,12.13
2022-09-27T01:06:45.062Z,11.95
2022-09-27T01:09:12.548Z,10.98
2022-09-27T01:11:44.867Z,10.82
2022-09-27T01:14:11.483Z,14.07
2022-09-27T01:16:48.610Z,11.88
2022-09-27T01:19:22.994Z,12.68
2022-09-27T01:22:17.135Z,9.98
2022-09-27T01:25:02.769Z,11.50
2022-09-27T01:27:41.168Z,12.10
2022-09-27T01:30:39.881Z,11.00
2022-09-27T01:33:37.505Z,9.68
2022-09-27T01:36:16.077Z,8.88
2022-09-27T01:38:57.247Z,9.02
2022-09-27T01:41:39.955Z,10.05
2022-09-27T01:44:14.298Z,10.98
2022-09-27T01:46:47.411Z,10.88
2022-09-27T01:49:19.259Z,9.68
2022-09-27T01:51:52.875Z,10.88
2022-09-27T01:54:25.401Z,11.18
2022-09-27T01:56:56.017Z,10.60
2022-09-27T01:59:31.051Z,11.23
2022-09-27T02:02:03.001Z,13.93
2022-09-27T02:04:33.896Z,10.10
2022-09-27T02:07:22.514Z,10.40
2022-09-27T02:09:56.886Z,9.68
2022-09-27T02:12:31.021Z,10.23
2022-09-27T02:15:14.153Z,10.00
2022-09-27T02:17:54.039Z,10.35
2022-09-27T02:20:29.885Z,10.57
2022-09-27T02:23:13.850Z,12.25
2022-09-27T02:26:01.153Z,12.27
2022-09-27T02:28:38.857Z,15.45
2022-09-27T02:31:06.232Z,12.30
2022-09-27T02:33:54.064Z,13.18
2022-09-27T02:36:22.268Z,13.18
2022-09-27T02:38:49.506Z,14.27
2022-09-27T02:41:18.167Z,15.70
2022-09-27T02:43:47.695Z,16.08
2022-09-27T02:46:26.114Z,14.07
2022-09-27T02:49:30.800Z,16.00
2022-09-27T02:52:06.969Z,14.48
2022-09-27T02:54:53.861Z,14.23
2022-09-27T02:57:35.333Z,17.02
2022-09-27T03:00:12.252Z,17.05
2022-09-27T03:02:38.854Z,13.45
2022-09-27T03:05:09.847Z,16.13
2022-09-27T03:07:38.612Z,15.23
2022-09-27T03:10:05.961Z,16.63
2022-09-27T03:12:33.595Z,16.48
2022-09-27T03:15:00.952Z,16.33
2022-09-27T03:17:27.686Z,15.02
2022-09-27T03:19:54.391Z,15.57
2022-09-27T03:22:21.711Z,16.42
2022-09-27T03:24:49.208Z,19.33
2022-09-27T03:27:15.872Z,17.35
2022-09-27T03:29:42.790Z,16.92
2022-09-27T03:32:09.501Z,17.95
2022-09-27T03:34:36.146Z,18.92
2022-09-27T03:37:02.869Z,18.20
2022-09-27T03:39:29.712Z,16.92
2022-09-27T03:41:57.327Z,18.15
2022-09-27T03:44:24.067Z,17.52
2022-09-27T03:46:50.727Z,21.33
2022-09-27T03:49:17.617Z,17.75
2022-09-27T03:51:44.414Z,21.55
2022-09-27T03:54:11.055Z,20.10
2022-09-27T03:56:37.699Z,18.45
2022-09-27T03:59:04.558Z,21.08
2022-09-27T04:01:31.321Z,23.48
2022-09-27T04:03:58.243Z,20.95
2022-09-27T04:06:25.789Z,19.70
2022-09-27T04:08:52.678Z,21.67
2022-09-27T04:11:19.611Z,19.67
2022-09-27T04:13:49.392Z,20.95
2022-09-27T04:16:16.593Z,22.80
2022-09-27T04:18:43.753Z,23.60
2022-09-27T04:21:10.561Z,22.83
2022-09-27T04:23:37.205Z,24.45
2022-09-27T04:26:03.998Z,22.08
2022-09-27T04:28:32.040Z,23.50
2022-09-27T04:30:59.440Z,23.42
2022-09-27T04:33:26.076Z,24.85
2022-09-27T04:36:11.480Z,22.98
2022-09-27T04:38:38.680Z,25.58
2022-09-27T04:41:05.627Z,24.00
2022-09-27T04:43:32.291Z,27.65
2022-09-27T04:45:58.974Z,26.50
2022-09-27T04:48:26.211Z,26.00
2022-09-27T04:51:00.602Z,25.40
2022-09-27T04:53:27.305Z,26.15
2022-09-27T04:55:54.724Z,26.90
2022-09-27T04:58:25.946Z,27.58
2022-09-27T05:00:53.116Z,25.55
2022-09-27T05:03:19.931Z,28.85
2022-09-27T05:05:46.944Z,27.30
2022-09-27T05:08:14.074Z,25.63
2022-09-27T05:10:40.820Z,26.67
2022-09-27T05:13:07.827Z,28.75
2022-09-27T05:15:35.309Z,27.70
2022-09-27T05:18:02.122Z,30.35
2022-09-27T05:20:28.809Z,26.48
2022-09-27T05:22:55.753Z,27.90
2022-09-27T05:25:22.704Z,27.10
2022-09-27T05:27:50.304Z,32.40
2022-09-27T05:30:17.106Z,29.90
2022-09-27T05:32:45.405Z,32.05
2022-09-27T05:35:12.236Z,32.33
2022-09-27T05:37:40.059Z,28.20
2022-09-27T05:40:22.594Z,30.50
2022-09-27T05:42:55.045Z,30.27
2022-09-27T05:45:23.345Z,28.17
2022-09-27T05:47:58.185Z,33.42
2022-09-27T05:50:26.509Z,31.80
2022-09-27T05:52:53.944Z,32.08
2022-09-27T05:55:21.521Z,29.58
2022-09-27T05:58:05.088Z,30.50
2022-09-27T06:00:32.276Z,30.55
2022-09-27T06:03:01.053Z,32.83
2022-09-27T06:05:30.119Z,34.63
2022-09-27T06:08:02.466Z,34.97
2022-09-27T06:10:30.169Z,35.38
2022-09-27T06:13:05.764Z,35.80
2022-09-27T06:18:06.465Z,32.15
2022-09-27T06:20:34.236Z,36.10
2022-09-27T06:23:21.033Z,35.22
2022-09-27T06:25:48.108Z,38.83
2022-09-27T06:28:15.450Z,33.33
2022-09-27T06:30:50.689Z,37.05
2022-09-27T06:33:19.759Z,36.17
2022-09-27T06:35:47.322Z,35.00
2022-09-27T06:38:16.329Z,31.85
2022-09-27T06:40:47.060Z,36.10
2022-09-27T06:43:16.123Z,35.30
2022-09-27T06:45:42.959Z,28.00
2022-09-27T06:48:13.037Z,36.88
2022-09-27T06:50:41.856Z,34.38
2022-09-27T06:53:10.903Z,33.90
2022-09-27T06:55:38.380Z,28.67
2022-09-27T06:58:24.581Z,31.35
2022-09-27T07:00:53.229Z,31.05
2022-09-27T07:03:30.731Z,27.98
2022-09-27T07:06:01.475Z,25.90
2022-09-27T07:08:29.469Z,25.35
2022-09-27T07:11:01.301Z,25.00
2022-09-27T07:13:32.728Z,22.23
2022-09-27T07:15:59.384Z,23.10
2022-09-27T07:18:26.053Z,26.85
2022-09-27T07:20:56.886Z,24.80
2022-09-27T07:23:26.839Z,23.38
2022-09-27T07:25:53.489Z,25.25
2022-09-27T07:28:22.267Z,27.08
2022-09-27T07:30:49.925Z,24.48
2022-09-27T07:33:16.936Z,24.75
2022-09-27T07:35:44.250Z,25.05
2022-09-27T07:38:14.047Z,22.00
2022-09-27T07:40:42.012Z,26.00
2022-09-27T07:43:09.788Z,23.48
2022-09-27T07:45:36.715Z,20.95
2022-09-27T07:48:07.330Z,22.38
2022-09-27T07:50:34.413Z,22.98
2022-09-27T07:53:01.124Z,23.08
2022-09-27T07:55:27.912Z,21.95
2022-09-27T07:58:03.596Z,27.50
2022-09-27T08:00:30.359Z,31.15
2022-09-27T08:02:57.054Z,31.38
2022-09-27T08:05:23.868Z,66.78
2022-09-27T08:07:55.654Z,48.95
2022-09-27T08:10:25.453Z,184.50
2022-09-27T08:12:52.801Z,58.20
2022-09-27T08:15:19.510Z,30.73
2022-09-27T08:17:46.205Z,26.45
2022-09-27T08:20:14.537Z,27.00
2022-09-27T08:22:43.496Z,25.50
2022-09-27T08:25:10.159Z,27.10
2022-09-27T08:27:36.814Z,31.25
2022-09-27T08:30:04.584Z,38.05
2022-09-27T08:32:31.261Z,24.80
2022-09-27T08:34:59.712Z,23.45
2022-09-27T08:37:26.759Z,20.50
2022-09-27T08:39:53.585Z,21.00
2022-09-27T08:42:46.892Z,20.95
2022-09-27T08:45:24.648Z,25.45
2022-09-27T08:47:58.767Z,18.92
2022-09-27T08:50:29.831Z,23.10
2022-09-27T08:53:01.560Z,21.38
2022-09-27T08:55:28.228Z,19.45
2022-09-27T08:57:59.891Z,20.08
2022-09-27T09:00:28.982Z,19.42
2022-09-27T09:02:57.722Z,17.00
2022-09-27T09:05:29.522Z,19.70
2022-09-27T09:08:23.850Z,20.58
2022-09-27T09:11:18.543Z,22.30
2022-09-27T09:14:09.206Z,18.05
2022-09-27T09:17:04.017Z,22.77
2022-09-27T09:19:49.951Z,20.00
2022-09-27T09:25:10.783Z,19.50
2022-09-27T09:28:02.281Z,18.70
2022-09-27T09:30:53.200Z,22.50
2022-09-27T09:33:28.711Z,17.88
2022-09-27T09:38:54.253Z,20.88
2022-09-27T09:41:46.044Z,23.08
2022-09-27T09:44:26.189Z,20.95
2022-09-27T09:46:59.851Z,19.67
2022-09-27T09:49:32.122Z,21.75
2022-09-27T09:52:13.928Z,20.17
2022-09-27T09:54:48.286Z,24.58
2022-09-27T09:57:28.851Z,20.95
2022-09-27T10:00:07.077Z,23.45
2022-09-27T10:02:37.453Z,18.33
2022-09-27T10:05:07.996Z,19.13
2022-09-27T10:07:38.438Z,18.58
2022-09-27T10:10:07.160Z,20.95
2022-09-27T10:12:36.535Z,18.52
2022-09-27T10:15:05.966Z,20.33
2022-09-27T10:17:39.239Z,20.15
2022-09-27T10:20:07.440Z,20.05
2022-09-27T10:22:48.007Z,18.92
2022-09-27T10:25:16.632Z,17.38
2022-09-27T10:27:47.320Z,18.95
2022-09-27T10:30:32.055Z,23.13
2022-09-27T10:33:03.193Z,16.83
2022-09-27T10:35:29.834Z,19.63
2022-09-27T10:38:21.756Z,19.17
2022-09-27T10:40:53.595Z,18.17
2022-09-27T10:43:29.390Z,20.60
2022-09-27T10:46:16.211Z,18.20
2022-09-27T10:48:43.163Z,21.08
2022-09-27T10:51:30.651Z,17.17
2022-09-27T10:54:00.347Z,20.02
2022-09-27T10:56:31.268Z,20.05
2022-09-27T10:59:00.179Z,19.42
2022-09-27T11:01:38.490Z,15.20
2022-09-27T11:04:05.264Z,15.02
2022-09-27T11:06:37.916Z,15.70
2022-09-27T11:09:50.870Z,12.60
2022-09-27T11:12:20.627Z,18.08
2022-09-27T11:14:58.031Z,14.50
2022-09-27T11:17:54.475Z,15.57
2022-09-27T11:20:34.826Z,12.40
2022-09-27T11:23:16.793Z,11.73
2022-09-27T11:25:51.052Z,11.75
2022-09-27T11:28:44.879Z,9.05
2022-09-27T11:31:40.197Z,7.63
2022-09-27T11:34:21.891Z,10.30
2022-09-27T11:37:02.079Z,12.35
2022-09-27T11:40:00.135Z,10.85
2022-09-27T11:42:48.427Z,8.90
2022-09-27T11:46:10.720Z,9.00
2022-09-27T11:48:50.828Z,10.20
2022-09-27T11:51:51.295Z,9.90
2022-09-27T11:54:46.477Z,8.88
2022-09-27T11:57:23.132Z,14.43
2022-09-27T12:00:07.968Z,9.05
2022-09-27T12:03:04.915Z,7.60
2022-09-27T12:06:04.825Z,6.20
2022-09-27T12:08:52.635Z,5.63
2022-09-27T12:11:31.948Z,6.72
2022-09-27T12:14:18.835Z,11.55
2022-09-27T12:16:48.308Z,8.18
2022-09-27T12:19:22.113Z,5.50
2022-09-27T12:21:49.281Z,6.93
2022-09-27T12:24:21.858Z,5.13
2022-09-27T12:26:53.423Z,7.53
2022-09-27T12:29:39.516Z,5.47
2022-09-27T12:32:22.047Z,6.28
2022-09-27T12:34:51.868Z,6.82
2022-09-27T12:37:28.118Z,6.80
2022-09-27T12:40:03.670Z,3.80
2022-09-27T12:42:36.808Z,2.60
2022-09-27T12:45:03.781Z,5.90
2022-09-27T12:47:36.010Z,6.07
2022-09-27T12:50:21.143Z,3.45
2022-09-27T12:52:55.986Z,4.82
2022-09-27T12:55:41.366Z,4.25
2022-09-27T12:58:10.788Z,9.30
2022-09-27T13:00:56.120Z,5.47
2022-09-27T13:03:57.032Z,4.93
2022-09-27T13:07:11.229Z,9.38
2022-09-27T13:09:56.298Z,6.35
2022-09-27T13:12:26.817Z,6.45
2022-09-27T13:15:02.833Z,4.50
2022-09-27T13:17:44.191Z,5.60
2022-09-27T13:20:35.598Z,6.43
2022-09-27T13:23:24.177Z,5.47
2022-09-27T13:26:20.872Z,4.40
2022-09-27T13:28:50.676Z,7.68
2022-09-27T13:31:38.343Z,10.32
2022-09-27T13:34:05.295Z,58.53
2022-09-27T13:36:32.897Z,6.57
2022-09-27T13:39:10.326Z,8.32
2022-09-27T13:41:49.077Z,4.72
2022-09-27T13:44:25.158Z,6.43
2022-09-27T13:47:00.162Z,7.68
2022-09-27T13:52:38.022Z,6.75
2022-09-27T13:55:27.658Z,5.55
2022-09-27T13:58:35.812Z,11.38
2022-09-27T14:01:17.043Z,4.95
2022-09-27T14:03:44.960Z,5.28
2022-09-27T14:06:18.409Z,6.15
2022-09-27T14:09:04.067Z,5.68
2022-09-27T14:11:40.276Z,4.18
2022-09-27T14:14:14.818Z,6.93
2022-09-27T14:16:48.037Z,4.13
2022-09-27T14:19:25.928Z,5.45
2022-09-27T14:21:53.557Z,6.35
2022-09-27T14:24:43.642Z,7.03
2022-09-27T14:27:19.695Z,5.10
2022-09-27T14:30:01.680Z,3.63
2022-09-27T14:32:32.520Z,3.20
2022-09-27T14:35:36.568Z,4.45
2022-09-27T14:38:33.007Z,3.97
2022-09-27T14:41:07.416Z,2.80
2022-09-27T14:43:36.205Z,3.45
2022-09-27T14:46:06.873Z,5.15
2022-09-27T14:48:36.940Z,2.92
2022-09-27T14:51:14.352Z,3.40
2022-09-27T14:53:50.948Z,3.50
2022-09-27T14:56:22.804Z,5.28
2022-09-27T14:58:56.599Z,3.38
2022-09-27T15:01:24.319Z,3.90
2022-09-27T15:03:52.610Z,3.35
2022-09-27T15:06:20.600Z,3.13
2022-09-27T15:08:49.695Z,2.72
2022-09-27T15:11:19.225Z,3.38
2022-09-27T15:13:47.897Z,3.42
2022-09-27T15:16:20.029Z,2.80
2022-09-27T15:18:50.461Z,5.63
2022-09-27T15:21:35.225Z,2.70
2022-09-27T15:24:02.791Z,2.20
2022-09-27T15:26:58.534Z,3.92
2022-09-27T15:29:26.454Z,2.45
2022-09-27T15:32:03.475Z,3.55
2022-09-27T15:34:32.803Z,3.92
2022-09-27T15:37:03.477Z,3.58
2022-09-27T15:39:37.872Z,4.03
2022-09-27T15:42:06.208Z,5.20
2022-09-27T15:44:47.938Z,5.15
2022-09-27T15:47:34.523Z,3.65
2022-09-27T15:50:29.544Z,3.20
2022-09-27T15:52:58.148Z,2.97
2022-09-27T15:55:27.148Z,3.10
2022-09-27T15:58:08.492Z,5.43
2022-09-27T16:00:35.819Z,3.45
2022-09-27T16:03:03.693Z,6.35
2022-09-27T16:05:33.069Z,4.07
2022-09-27T16:07:59.819Z,5.90
2022-09-27T16:10:36.944Z,3.70
2022-09-27T16:13:03.944Z,5.32
2022-09-27T16:15:31.890Z,4.28
2022-09-27T16:18:00.329Z,2.47
2022-09-27T16:20:29.686Z,6.50
2022-09-27T16:22:56.818Z,2.78
2022-09-27T16:25:25.205Z,2.53
2022-09-27T16:27:53.509Z,4.10
2022-09-27T16:30:20.750Z,3.13
2022-09-27T16:32:48.652Z,3.10
2022-09-27T16:35:16.811Z,3.92
2022-09-27T16:37:44.423Z,2.17
2022-09-27T16:40:12.516Z,3.17
2022-09-27T16:42:39.575Z,4.05
2022-09-27T16:45:10.567Z,3.38
2022-09-27T16:47:39.624Z,3.10
2022-09-27T16:50:25.412Z,6.22
2022-09-27T16:55:20.770Z,4.25
2022-09-27T16:57:48.126Z,8.68
2022-09-27T17:00:15.765Z,4.60
2022-09-27T17:02:47.030Z,4.80
2022-09-27T17:05:14.768Z,3.00
2022-09-27T17:07:41.517Z,4.13
2022-09-27T17:10:08.577Z,4.80
2022-09-27T17:12:35.412Z,3.70
2022-09-27T17:15:02.157Z,3.60
2022-09-27T17:17:28.826Z,6.60
2022-09-27T17:19:55.487Z,5.90
2022-09-27T17:22:22.121Z,5.57
2022-09-27T17:24:48.897Z,4.68
2022-09-27T17:27:15.557Z,6.95
2022-09-27T17:29:42.430Z,6.70
2022-09-27T17:32:09.292Z,7.43
2022-09-27T17:34:36.761Z,4.20
2022-09-27T17:37:03.820Z,7.45
2022-09-27T17:39:30.580Z,3.80
2022-09-27T17:41:58.420Z,3.78
2022-09-27T17:44:26.993Z,4.35
2022-09-27T17:47:13.963Z,6.35
2022-09-27T17:49:59.114Z,6.07
2022-09-27T17:52:26.873Z,6.57
2022-09-27T17:54:55.590Z,6.72
2022-09-27T17:57:22.680Z,7.97
2022-09-27T17:59:49.469Z,5.30
2022-09-27T18:02:16.915Z,5.88
2022-09-27T18:04:43.891Z,4.68
2022-09-27T18:07:12.990Z,4.35
2022-09-27T18:09:40.903Z,5.00
2022-09-27T18:12:07.722Z,4.10
2022-09-27T18:14:34.778Z,9.43
2022-09-27T18:17:03.023Z,7.30
2022-09-27T18:19:29.681Z,4.50
2022-09-27T18:21:57.962Z,5.35
2022-09-27T18:24:27.578Z,7.13
2022-09-27T18:26:55.784Z,9.48
2022-09-27T18:29:23.160Z,7.75
2022-09-27T18:31:50.626Z,6.45
2022-09-27T18:34:18.404Z,5.43
2022-09-27T18:36:45.506Z,6.57
2022-09-27T18:39:16.077Z,6.40
2022-09-27T18:41:44.942Z,10.02
2022-09-27T18:44:14.112Z,6.72
2022-09-27T18:46:43.036Z,8.18
2022-09-27T18:49:14.365Z,7.72
2022-09-27T18:51:46.018Z,5.90
2022-09-27T18:54:25.546Z,6.68
2022-09-27T18:56:52.475Z,7.45
2022-09-27T18:59:21.068Z,7.35
2022-09-27T19:01:50.094Z,7.22
2022-09-27T19:04:24.661Z,8.75
2022-09-27T19:06:57.387Z,6.10
2022-09-27T19:09:26.599Z,7.80
2022-09-27T19:11:53.568Z,6.57
2022-09-27T19:14:22.811Z,9.43
2022-09-27T19:16:52.291Z,5.95
2022-09-27T19:19:21.821Z,8.13
2022-09-27T19:21:50.596Z,6.60
2022-09-27T19:24:18.720Z,10.95
2022-09-27T19:26:45.626Z,6.90
2022-09-27T19:29:17.216Z,10.32
2022-09-27T19:31:44.185Z,9.00
2022-09-27T19:34:11.317Z,10.15
2022-09-27T19:36:38.408Z,6.70
2022-09-27T19:39:05.309Z,8.73
2022-09-27T19:41:33.990Z,5.93
2022-09-27T19:44:01.415Z,8.98
2022-09-27T19:46:28.407Z,10.20
2022-09-27T19:48:56.120Z,7.95
2022-09-27T19:51:27.882Z,7.95
2022-09-27T19:53:57.077Z,10.20
2022-09-27T19:56:25.944Z,9.32
2022-09-27T19:58:52.931Z,6.88
2022-09-27T20:01:23.791Z,7.72
2022-09-27T20:03:52.880Z,9.40
2022-09-27T20:06:22.330Z,9.45
2022-09-27T20:08:49.489Z,6.53
2022-09-27T20:11:21.168Z,7.40
2022-09-27T20:13:49.241Z,10.23
2022-09-27T20:16:18.771Z,8.02
2022-09-27T20:18:50.682Z,12.73
2022-09-27T20:21:18.917Z,7.50
2022-09-27T20:23:49.207Z,8.23
2022-09-27T20:26:19.061Z,7.18
2022-09-27T20:28:57.260Z,5.57
2022-09-27T20:31:29.848Z,11.25
2022-09-27T20:33:57.375Z,5.45
2022-09-27T20:36:27.853Z,9.73
2022-09-27T20:39:01.968Z,8.07
2022-09-27T20:41:31.691Z,8.43
2022-09-27T20:44:02.934Z,7.93
2022-09-27T20:46:30.119Z,8.05
2022-09-27T20:49:17.013Z,7.13
2022-09-27T20:51:45.734Z,7.38
2022-09-27T20:54:13.185Z,6.38
2022-09-27T20:56:46.981Z,11.57
2022-09-27T20:59:16.940Z,8.15
2022-09-27T21:01:45.464Z,6.97
2022-09-27T21:04:17.245Z,4.65
2022-09-27T21:06:44.662Z,4.47
2022-09-27T21:09:18.344Z,5.25
2022-09-27T21:11:49.465Z,4.78
2022-09-27T21:14:16.382Z,6.50
2022-09-27T21:16:43.535Z,4.32
2022-09-27T21:19:10.508Z,4.05
2022-09-27T21:21:37.176Z,8.60
2022-09-27T21:24:04.178Z,4.20
2022-09-27T21:26:32.868Z,4.90
2022-09-27T21:29:01.552Z,5.00
2022-09-27T21:31:31.907Z,4.53
2022-09-27T21:34:00.926Z,6.70
2022-09-27T21:36:30.059Z,4.93
2022-09-27T21:38:58.215Z,3.40
2022-09-27T21:41:26.111Z,4.97
2022-09-27T21:43:53.541Z,4.22
2022-09-27T21:46:25.650Z,3.47
2022-09-27T21:48:55.642Z,4.25
2022-09-27T21:51:25.402Z,3.97
2022-09-27T21:54:01.170Z,4.68
2022-09-27T21:56:33.630Z,4.30
2022-09-27T21:59:00.808Z,3.10
2022-09-27T22:01:30.319Z,5.05
2022-09-27T22:03:57.963Z,6.07
2022-09-27T22:06:30.456Z,4.07
2022-09-27T22:08:58.469Z,5.25
2022-09-27T22:11:28.525Z,4.85
2022-09-27T22:13:55.552Z,4.70
2022-09-27T22:16:23.127Z,6.65
2022-09-27T22:18:52.403Z,4.97
2022-09-27T22:21:22.168Z,3.83
2022-09-27T22:23:57.184Z,6.18
2022-09-27T22:26:26.106Z,5.53
2022-09-27T22:28:53.287Z,5.05
2022-09-27T22:31:20.704Z,3.47
2022-09-27T22:33:59.401Z,7.85
2022-09-27T22:36:27.875Z,3.58
2022-09-27T22:38:55.102Z,4.63
2022-09-27T22:41:22.501Z,2.45
2022-09-27T22:43:49.577Z,4.60
2022-09-27T22:46:16.284Z,5.65
2022-09-27T22:48:43.112Z,3.42
2022-09-27T22:51:10.570Z,5.13
2022-09-27T22:53:37.730Z,3.10
2022-09-27T22:56:16.815Z,4.82
2022-09-27T22:58:44.137Z,6.07
2022-09-27T23:01:22.443Z,4.22
2022-09-27T23:03:51.139Z,5.95
2022-09-27T23:06:19.635Z,3.78
2022-09-27T23:08:47.813Z,2.97
2022-09-27T23:11:19.846Z,8.02
2022-09-27T23:13:48.176Z,3.83
2022-09-27T23:16:20.495Z,4.85
2022-09-27T23:18:47.706Z,4.07
2022-09-27T23:21:16.903Z,5.78
2022-09-27T23:23:45.717Z,2.95
2022-09-27T23:26:14.721Z,6.43
2022-09-27T23:28:41.494Z,3.03
2022-09-27T23:31:09.262Z,4.15
2022-09-27T23:33:37.728Z,4.97
2022-09-27T23:36:07.701Z,4.18
2022-09-27T23:38:34.726Z,6.07
2022-09-27T23:41:02.022Z,5.35
2022-09-27T23:43:28.854Z,4.10
2022-09-27T23:45:57.486Z,4.47
2022-09-27T23:48:25.601Z,8.43
2022-09-27T23:50:52.686Z,4.15
2022-09-27T23:53:20.938Z,4.28
2022-09-27T23:55:49.887Z,5.47
2022-09-27T23:58:17.442Z,5.32
